• Join FlightAware (Why Join?)
  • Login
  • US Flag 
10:11PM EDT


 

Airport Tracker/Info


-or-


 

Live Flight TrackerFlight Track Log ✈ VNR160 ✈ 19-Apr-2013 ✈ KBCT - KOPF

Flight Track Log - Related Links

Times and Time Zones

All times are in EDT time to prevent confusion due to time zone crossing. See the VNR160 flight status page for this flight to view local times or setup timezone preferences in your user account.

Time Position Orientation Groundspeed Altitude Reporting Facility
EDT Latitude Longitude Course Direction KTS MPH feet Rate Location/Type
07:50PM 26.4161 -80.1019 20° North 179 206 2,100  Level Miami Center
07:51PM 26.4753 -80.0781 20° North 185 213 5,400 1,620 Climbing Miami Center
07:52PM 26.4811 -79.9994 85° East 253 291 6,100 300 Climbing Miami Center
07:53PM 26.4233 -79.9608 149° Southeast 262 302 6,100  Level Miami Center
07:54PM 26.3503 -79.9633 182° South 271 312 6,100 -60 Level Miami Center
07:55PM 26.2683 -79.9892 196° South 269 310 6,000 -60 Descending Miami Center
07:56PM 26.2028 -80.0244 206° Southwest 270 311 6,000 -60 Level Miami Center
07:58PM 26.1675 -80.1114 246° West 279 321 5,900 -840 Descending Miami Center
07:59PM 26.1078 -80.1675 220° Southwest 266 306 4,300 -960 Descending Miami Center
07:59PM 26.0528 -80.1961 205° Southwest 253 291 4,100 -600 Descending Miami Center
08:00PM 26.0097 -80.2481 227° Southwest 254 292 3,200 -1,080 Descending Miami Center
08:02PM 25.9850 -80.3236 250° West 216 249 2,000 -540 Descending Miami Center
08:03PM 25.9836 -80.3814 268° West 189 217 2,100  Climbing Miami Center
08:04PM 25.9781 -80.4392 264° West 176 203 2,100  Level Miami Center
08:05PM 25.9319 -80.4422 183° South 169 194 2,100 -240 Level Miami Center
08:06PM 25.9081 -80.3978 121° Southeast 173 199 1,700 -480 Descending Miami Center
08:07PM 25.9069 -80.3539 92° East 138 159 1,200 -660 Descending Miami Center
08:08PM 25.9100 -80.3147 85° East 133 153 500 -720 Descending Miami Center
08:10PM 25.9074 -80.2782 94° East  Level Estimated
08:17PM 25.9074 -80.2782 211° Southwest  Level Estimated